sensor_id;sensor_type;location;lat;lon;timestamp;P1;durP1;ratioP1;P2;durP2;ratioP2
25563;SDS011;13453;47.994;8.790;2022-10-26T00:01:46;3.83;;;2.00;;
25563;SDS011;13453;47.994;8.790;2022-10-26T00:11:49;3.88;;;2.00;;
25563;SDS011;13453;47.994;8.790;2022-10-26T00:21:51;5.05;;;2.10;;
25563;SDS011;13453;47.994;8.790;2022-10-26T00:31:53;4.07;;;2.05;;
25563;SDS011;13453;47.994;8.790;2022-10-26T00:41:55;3.78;;;1.83;;
25563;SDS011;13453;47.994;8.790;2022-10-26T00:51:56;3.90;;;1.70;;
25563;SDS011;13453;47.994;8.790;2022-10-26T01:01:58;3.58;;;2.08;;
25563;SDS011;13453;47.994;8.790;2022-10-26T01:12:00;2.83;;;1.50;;
25563;SDS011;13453;47.994;8.790;2022-10-26T01:22:06;4.07;;;1.58;;
25563;SDS011;13453;47.994;8.790;2022-10-26T01:32:26;4.07;;;1.60;;
25563;SDS011;13453;47.994;8.790;2022-10-26T01:42:36;3.55;;;1.58;;
25563;SDS011;13453;47.994;8.790;2022-10-26T01:52:42;2.90;;;1.58;;
25563;SDS011;13453;47.994;8.790;2022-10-26T02:02:50;2.08;;;1.20;;
25563;SDS011;13453;47.994;8.790;2022-10-26T02:13:06;2.55;;;1.38;;
25563;SDS011;13453;47.994;8.790;2022-10-26T02:23:25;5.25;;;1.98;;
25563;SDS011;13453;47.994;8.790;2022-10-26T02:33:30;2.17;;;1.33;;
25563;SDS011;13453;47.994;8.790;2022-10-26T02:43:40;12.07;;;1.73;;
25563;SDS011;13453;47.994;8.790;2022-10-26T03:03:56;2.83;;;1.30;;
25563;SDS011;13453;47.994;8.790;2022-10-26T03:13:59;2.92;;;1.13;;
25563;SDS011;13453;47.994;8.790;2022-10-26T03:24:01;3.33;;;1.40;;
25563;SDS011;13453;47.994;8.790;2022-10-26T03:34:03;2.50;;;1.10;;
25563;SDS011;13453;47.994;8.790;2022-10-26T03:44:04;3.85;;;1.33;;
25563;SDS011;13453;47.994;8.790;2022-10-26T03:54:07;4.05;;;1.40;;
25563;SDS011;13453;47.994;8.790;2022-10-26T04:04:09;3.78;;;1.35;;
25563;SDS011;13453;47.994;8.790;2022-10-26T04:14:11;5.15;;;1.50;;
25563;SDS011;13453;47.994;8.790;2022-10-26T04:24:12;3.35;;;1.52;;
25563;SDS011;13453;47.994;8.790;2022-10-26T04:34:14;3.78;;;1.50;;
25563;SDS011;13453;47.994;8.790;2022-10-26T04:44:16;2.47;;;1.38;;
25563;SDS011;13453;47.994;8.790;2022-10-26T04:54:18;3.90;;;1.80;;
25563;SDS011;13453;47.994;8.790;2022-10-26T05:04:20;2.20;;;1.13;;
25563;SDS011;13453;47.994;8.790;2022-10-26T05:14:22;2.45;;;1.20;;
25563;SDS011;13453;47.994;8.790;2022-10-26T05:24:24;4.05;;;1.60;;
25563;SDS011;13453;47.994;8.790;2022-10-26T05:34:25;3.15;;;1.48;;
25563;SDS011;13453;47.994;8.790;2022-10-26T05:44:27;2.33;;;1.48;;
25563;SDS011;13453;47.994;8.790;2022-10-26T05:54:29;3.92;;;1.48;;
25563;SDS011;13453;47.994;8.790;2022-10-26T06:14:43;5.65;;;1.40;;
25563;SDS011;13453;47.994;8.790;2022-10-26T06:35:50;1.77;;;1.17;;
25563;SDS011;13453;47.994;8.790;2022-10-26T06:45:30;1.80;;;1.10;;
25563;SDS011;13453;47.994;8.790;2022-10-26T06:55:38;2.33;;;1.30;;
25563;SDS011;13453;47.994;8.790;2022-10-26T07:05:43;1.52;;;1.10;;
25563;SDS011;13453;47.994;8.790;2022-10-26T07:15:45;2.75;;;1.58;;
25563;SDS011;13453;47.994;8.790;2022-10-26T07:25:48;5.22;;;1.80;;
25563;SDS011;13453;47.994;8.790;2022-10-26T07:35:50;2.03;;;1.48;;
25563;SDS011;13453;47.994;8.790;2022-10-26T07:45:53;2.35;;;1.20;;
25563;SDS011;13453;47.994;8.790;2022-10-26T07:55:55;3.13;;;0.93;;
25563;SDS011;13453;47.994;8.790;2022-10-26T08:05:57;1.15;;;0.80;;
25563;SDS011;13453;47.994;8.790;2022-10-26T08:16:00;1.13;;;0.75;;
25563;SDS011;13453;47.994;8.790;2022-10-26T08:26:03;1.48;;;0.85;;
25563;SDS011;13453;47.994;8.790;2022-10-26T08:36:05;0.88;;;0.75;;
25563;SDS011;13453;47.994;8.790;2022-10-26T09:16:39;2.05;;;1.10;;
25563;SDS011;13453;47.994;8.790;2022-10-26T09:27:04;1.95;;;1.15;;
25563;SDS011;13453;47.994;8.790;2022-10-26T09:37:26;1.42;;;0.93;;
25563;SDS011;13453;47.994;8.790;2022-10-26T09:47:36;2.75;;;1.17;;
25563;SDS011;13453;47.994;8.790;2022-10-26T09:57:43;2.38;;;0.90;;
25563;SDS011;13453;47.994;8.790;2022-10-26T10:07:47;1.60;;;0.90;;
25563;SDS011;13453;47.994;8.790;2022-10-26T10:17:50;1.27;;;0.90;;
25563;SDS011;13453;47.994;8.790;2022-10-26T10:27:56;1.90;;;1.10;;
25563;SDS011;13453;47.994;8.790;2022-10-26T10:37:58;1.10;;;0.98;;
25563;SDS011;13453;47.994;8.790;2022-10-26T10:58:50;1.73;;;0.88;;
25563;SDS011;13453;47.994;8.790;2022-10-26T11:09:01;2.35;;;0.93;;
25563;SDS011;13453;47.994;8.790;2022-10-26T11:39:37;2.05;;;0.80;;
25563;SDS011;13453;47.994;8.790;2022-10-26T11:49:43;1.08;;;0.80;;
25563;SDS011;13453;47.994;8.790;2022-10-26T11:59:51;1.70;;;0.90;;
25563;SDS011;13453;47.994;8.790;2022-10-26T12:09:55;2.25;;;0.98;;
25563;SDS011;13453;47.994;8.790;2022-10-26T12:30:35;3.38;;;0.98;;
25563;SDS011;13453;47.994;8.790;2022-10-26T12:50:40;1.45;;;0.75;;
25563;SDS011;13453;47.994;8.790;2022-10-26T13:11:03;1.92;;;0.70;;
25563;SDS011;13453;47.994;8.790;2022-10-26T13:31:50;1.33;;;0.77;;
25563;SDS011;13453;47.994;8.790;2022-10-26T13:41:41;2.05;;;0.90;;
25563;SDS011;13453;47.994;8.790;2022-10-26T13:51:45;2.20;;;1.00;;
25563;SDS011;13453;47.994;8.790;2022-10-26T14:02:07;3.47;;;1.10;;
25563;SDS011;13453;47.994;8.790;2022-10-26T14:12:16;4.45;;;1.10;;
25563;SDS011;13453;47.994;8.790;2022-10-26T14:22:20;2.72;;;1.20;;
25563;SDS011;13453;47.994;8.790;2022-10-26T14:42:33;4.68;;;1.10;;
25563;SDS011;13453;47.994;8.790;2022-10-26T14:52:39;1.88;;;1.00;;
25563;SDS011;13453;47.994;8.790;2022-10-26T15:02:41;2.40;;;1.00;;
25563;SDS011;13453;47.994;8.790;2022-10-26T15:12:45;2.05;;;1.08;;
25563;SDS011;13453;47.994;8.790;2022-10-26T15:22:48;2.50;;;1.17;;
25563;SDS011;13453;47.994;8.790;2022-10-26T15:32:53;3.63;;;0.98;;
25563;SDS011;13453;47.994;8.790;2022-10-26T15:42:57;5.22;;;1.65;;
25563;SDS011;13453;47.994;8.790;2022-10-26T15:53:00;2.53;;;1.27;;
25563;SDS011;13453;47.994;8.790;2022-10-26T16:03:07;4.20;;;1.50;;
25563;SDS011;13453;47.994;8.790;2022-10-26T16:13:14;4.28;;;0.95;;
25563;SDS011;13453;47.994;8.790;2022-10-26T16:23:16;1.55;;;1.00;;
25563;SDS011;13453;47.994;8.790;2022-10-26T16:33:17;2.63;;;1.10;;
25563;SDS011;13453;47.994;8.790;2022-10-26T16:43:19;3.72;;;1.10;;
25563;SDS011;13453;47.994;8.790;2022-10-26T16:53:22;4.30;;;1.60;;
25563;SDS011;13453;47.994;8.790;2022-10-26T17:03:24;3.65;;;2.05;;
25563;SDS011;13453;47.994;8.790;2022-10-26T17:13:26;2.70;;;1.60;;
25563;SDS011;13453;47.994;8.790;2022-10-26T17:23:27;4.05;;;1.45;;
25563;SDS011;13453;47.994;8.790;2022-10-26T17:33:33;2.85;;;1.38;;
25563;SDS011;13453;47.994;8.790;2022-10-26T17:43:36;2.17;;;1.30;;
25563;SDS011;13453;47.994;8.790;2022-10-26T17:53:39;1.02;;;0.85;;
25563;SDS011;13453;47.994;8.790;2022-10-26T18:03:41;1.75;;;0.95;;
25563;SDS011;13453;47.994;8.790;2022-10-26T18:13:44;1.85;;;1.23;;
25563;SDS011;13453;47.994;8.790;2022-10-26T18:23:47;1.80;;;1.05;;
25563;SDS011;13453;47.994;8.790;2022-10-26T18:33:52;1.73;;;0.98;;
25563;SDS011;13453;47.994;8.790;2022-10-26T18:43:58;2.15;;;1.15;;
25563;SDS011;13453;47.994;8.790;2022-10-26T18:54:02;2.20;;;0.90;;
25563;SDS011;13453;47.994;8.790;2022-10-26T19:04:05;2.13;;;0.90;;
25563;SDS011;13453;47.994;8.790;2022-10-26T19:14:08;3.13;;;0.90;;
25563;SDS011;13453;47.994;8.790;2022-10-26T19:24:15;2.50;;;1.05;;
25563;SDS011;13453;47.994;8.790;2022-10-26T19:34:19;2.58;;;1.00;;
25563;SDS011;13453;47.994;8.790;2022-10-26T19:44:21;1.95;;;0.88;;
25563;SDS011;13453;47.994;8.790;2022-10-26T19:54:25;1.42;;;0.88;;
25563;SDS011;13453;47.994;8.790;2022-10-26T20:04:27;1.25;;;0.88;;
25563;SDS011;13453;47.994;8.790;2022-10-26T20:14:29;1.55;;;1.00;;
25563;SDS011;13453;47.994;8.790;2022-10-26T20:24:31;1.15;;;0.82;;
25563;SDS011;13453;47.994;8.790;2022-10-26T20:34:33;2.13;;;0.90;;
25563;SDS011;13453;47.994;8.790;2022-10-26T20:44:37;0.90;;;0.70;;
25563;SDS011;13453;47.994;8.790;2022-10-26T21:04:58;1.83;;;0.90;;
25563;SDS011;13453;47.994;8.790;2022-10-26T21:15:00;1.65;;;0.98;;
25563;SDS011;13453;47.994;8.790;2022-10-26T21:25:02;1.75;;;0.90;;
25563;SDS011;13453;47.994;8.790;2022-10-26T21:35:04;5.82;;;1.23;;
25563;SDS011;13453;47.994;8.790;2022-10-26T21:45:07;6.95;;;1.20;;
25563;SDS011;13453;47.994;8.790;2022-10-26T21:55:09;3.85;;;1.08;;
25563;SDS011;13453;47.994;8.790;2022-10-26T22:05:12;1.85;;;1.20;;
25563;SDS011;13453;47.994;8.790;2022-10-26T22:15:14;1.83;;;0.80;;
25563;SDS011;13453;47.994;8.790;2022-10-26T22:25:17;1.55;;;0.90;;
25563;SDS011;13453;47.994;8.790;2022-10-26T22:35:18;0.80;;;0.80;;
25563;SDS011;13453;47.994;8.790;2022-10-26T22:45:36;1.98;;;1.00;;
25563;SDS011;13453;47.994;8.790;2022-10-26T22:55:39;1.17;;;0.70;;
25563;SDS011;13453;47.994;8.790;2022-10-26T23:05:46;1.92;;;1.05;;
25563;SDS011;13453;47.994;8.790;2022-10-26T23:15:48;1.05;;;0.90;;
25563;SDS011;13453;47.994;8.790;2022-10-26T23:25:50;1.20;;;1.08;;
25563;SDS011;13453;47.994;8.790;2022-10-26T23:35:52;1.35;;;1.00;;
25563;SDS011;13453;47.994;8.790;2022-10-26T23:45:54;1.30;;;1.00;;
25563;SDS011;13453;47.994;8.790;2022-10-26T23:55:56;2.28;;;0.85;;
